createdAt,value
2019-04-01T00:01:58.792Z,10.33
2019-04-01T00:04:27.856Z,10.63
2019-04-01T00:06:56.762Z,10.83
2019-04-01T00:09:25.685Z,10.47
2019-04-01T00:11:56.212Z,10.90
2019-04-01T00:14:25.109Z,10.77
2019-04-01T00:16:54.024Z,11.20
2019-04-01T00:19:23.098Z,10.03
2019-04-01T00:21:52.059Z,9.50
2019-04-01T00:24:21.204Z,10.43
2019-04-01T00:26:50.105Z,10.70
2019-04-01T00:29:19.000Z,10.73
2019-04-01T00:31:47.914Z,9.33
2019-04-01T00:34:16.895Z,9.03
2019-04-01T00:36:45.782Z,9.73
2019-04-01T00:39:14.677Z,10.57
2019-04-01T00:41:45.238Z,10.23
2019-04-01T00:44:14.139Z,9.50
2019-04-01T00:46:43.037Z,10.23
2019-04-01T00:49:11.973Z,9.93
2019-04-01T00:51:40.858Z,9.70
2019-04-01T00:54:09.763Z,10.87
2019-04-01T00:56:38.739Z,10.43
2019-04-01T00:59:07.637Z,10.40
2019-04-01T01:01:36.538Z,10.27
2019-04-01T01:04:05.637Z,9.67
2019-04-01T01:06:34.531Z,9.90
2019-04-01T01:09:05.377Z,10.23
2019-04-01T01:11:34.298Z,10.50
2019-04-01T01:14:03.370Z,10.07
2019-04-01T01:16:32.300Z,9.93
2019-04-01T01:19:01.195Z,10.33
2019-04-01T01:21:31.273Z,11.03
2019-04-01T01:24:01.190Z,9.27
2019-04-01T01:26:30.087Z,10.20
2019-04-01T01:28:58.996Z,10.23
2019-04-01T01:31:27.932Z,9.57
2019-04-01T01:33:56.826Z,10.80
2019-04-01T01:36:25.759Z,11.13
2019-04-01T01:38:54.713Z,10.40
2019-04-01T01:41:23.606Z,10.23
2019-04-01T01:43:52.550Z,12.73
2019-04-01T01:46:21.513Z,12.60
2019-04-01T01:48:50.412Z,12.00
2019-04-01T01:51:19.320Z,10.37
2019-04-01T01:53:48.214Z,10.40
2019-04-01T01:56:17.150Z,10.53
2019-04-01T01:58:46.051Z,11.00
2019-04-01T02:01:14.966Z,11.27
2019-04-01T02:03:43.863Z,10.00
2019-04-01T02:06:12.760Z,10.90
2019-04-01T02:08:43.204Z,10.30
2019-04-01T02:11:12.120Z,10.23
2019-04-01T02:13:41.082Z,11.53
2019-04-01T02:16:09.986Z,10.60
2019-04-01T02:18:39.890Z,10.77
2019-04-01T02:21:08.792Z,11.17
2019-04-01T02:23:37.698Z,11.20
2019-04-01T02:26:06.624Z,11.20
2019-04-01T02:28:36.484Z,9.97
2019-04-01T02:31:05.376Z,10.87
2019-04-01T02:33:34.306Z,10.57
2019-04-01T02:36:03.191Z,10.60
2019-04-01T02:38:32.132Z,11.40
2019-04-01T02:41:01.091Z,10.40
2019-04-01T02:43:29.994Z,10.20
2019-04-01T02:45:58.908Z,11.13
2019-04-01T02:48:27.800Z,11.37
2019-04-01T02:50:56.710Z,10.87
2019-04-01T02:53:25.628Z,11.20
2019-04-01T02:55:54.590Z,10.57
2019-04-01T02:58:23.515Z,11.23
2019-04-01T03:00:52.410Z,11.43
2019-04-01T03:03:21.307Z,11.00
2019-04-01T03:05:50.235Z,11.47
2019-04-01T03:08:19.129Z,11.20
2019-04-01T03:10:48.096Z,11.37
2019-04-01T03:13:17.006Z,11.43
2019-04-01T03:15:45.897Z,10.70
2019-04-01T03:18:14.817Z,11.00
2019-04-01T03:20:43.712Z,11.30
2019-04-01T03:23:12.764Z,11.60
2019-04-01T03:25:41.699Z,11.07
2019-04-01T03:28:10.589Z,10.73
2019-04-01T03:30:39.489Z,11.07
2019-04-01T03:33:08.528Z,11.27
2019-04-01T03:35:37.593Z,10.83
2019-04-01T03:38:06.499Z,11.27
2019-04-01T03:40:35.477Z,11.83
2019-04-01T03:43:04.419Z,11.57
2019-04-01T03:45:33.314Z,11.27
2019-04-01T03:48:02.317Z,11.97
2019-04-01T03:50:31.221Z,11.70
2019-04-01T03:53:00.189Z,10.73
2019-04-01T03:55:29.130Z,11.33
2019-04-01T03:57:58.093Z,12.10
2019-04-01T04:00:27.068Z,11.53
2019-04-01T04:02:56.168Z,11.70
2019-04-01T04:05:25.070Z,11.60
2019-04-01T04:07:53.953Z,12.77
2019-04-01T04:10:22.913Z,11.33
2019-04-01T04:12:51.827Z,11.40
2019-04-01T04:15:20.845Z,11.70
2019-04-01T04:17:49.780Z,11.77
2019-04-01T04:20:18.685Z,12.00
2019-04-01T04:22:47.731Z,13.70
2019-04-01T04:25:16.693Z,13.77
2019-04-01T04:27:45.579Z,14.00
2019-04-01T04:30:16.018Z,14.17
2019-04-01T04:32:44.934Z,14.87
2019-04-01T04:35:13.896Z,15.40
2019-04-01T04:37:42.966Z,15.50
2019-04-01T04:40:13.607Z,15.93
2019-04-01T04:42:42.503Z,15.10
2019-04-01T04:45:12.546Z,15.87
2019-04-01T04:47:41.461Z,16.07
2019-04-01T04:50:10.422Z,17.13
2019-04-01T04:52:39.357Z,16.00
2019-04-01T04:55:08.253Z,17.67
2019-04-01T04:57:37.150Z,17.77
2019-04-01T05:00:06.746Z,17.27
2019-04-01T05:02:35.717Z,17.13
2019-04-01T05:05:05.588Z,17.73
2019-04-01T05:07:34.532Z,17.87
2019-04-01T05:10:07.867Z,18.30
2019-04-01T05:12:36.825Z,17.53
2019-04-01T05:15:06.600Z,20.37
2019-04-01T05:17:35.563Z,19.50
2019-04-01T05:20:05.057Z,18.77
2019-04-01T05:22:34.123Z,20.60
2019-04-01T05:25:03.444Z,18.83
2019-04-01T05:27:33.009Z,20.37
2019-04-01T05:30:03.359Z,19.33
2019-04-01T05:32:32.427Z,22.07
2019-04-01T05:35:02.869Z,21.40
2019-04-01T05:37:31.932Z,21.17
2019-04-01T05:40:00.911Z,20.03
2019-04-01T05:42:29.886Z,21.07
2019-04-01T05:44:58.839Z,21.50
2019-04-01T05:47:29.483Z,20.57
2019-04-01T05:49:59.043Z,23.23
2019-04-01T05:52:28.009Z,20.87
2019-04-01T05:54:56.997Z,23.03
2019-04-01T05:57:25.980Z,26.33
2019-04-01T05:59:54.923Z,25.20
2019-04-01T06:02:23.818Z,24.33
2019-04-01T06:04:52.882Z,23.77
2019-04-01T06:07:21.770Z,24.37
2019-04-01T06:09:50.738Z,25.70
2019-04-01T06:12:19.919Z,24.50
2019-04-01T06:14:48.878Z,26.10
2019-04-01T06:17:17.800Z,26.47
2019-04-01T06:19:46.770Z,25.60
2019-04-01T06:22:15.735Z,26.83
2019-04-01T06:24:44.677Z,26.47
2019-04-01T06:27:14.447Z,26.53
2019-04-01T06:29:43.724Z,27.63
2019-04-01T06:32:12.712Z,27.10
2019-04-01T06:34:52.317Z,27.40
2019-04-01T06:37:12.402Z,30.30
2019-04-01T06:39:41.284Z,28.57
2019-04-01T06:42:10.187Z,27.47
2019-04-01T06:44:40.163Z,29.30
2019-04-01T06:47:09.151Z,29.83
2019-04-01T06:49:38.045Z,29.77
2019-04-01T06:52:07.013Z,30.30
2019-04-01T06:54:36.025Z,29.83
2019-04-01T06:57:04.984Z,31.13
2019-04-01T06:59:33.955Z,30.93
2019-04-01T07:02:02.915Z,32.97
2019-04-01T07:04:31.805Z,31.30
2019-04-01T07:07:00.775Z,33.03
2019-04-01T07:09:29.759Z,31.83
2019-04-01T07:11:58.727Z,34.53
2019-04-01T07:14:28.199Z,34.03
2019-04-01T07:16:57.169Z,34.50
2019-04-01T07:19:26.076Z,33.27
2019-04-01T07:21:55.070Z,31.20
2019-04-01T07:24:24.032Z,33.90
2019-04-01T07:26:52.929Z,35.87
2019-04-01T07:29:21.941Z,36.37
2019-04-01T07:31:50.897Z,36.43
2019-04-01T07:34:21.344Z,35.53
2019-04-01T07:36:50.350Z,36.77
2019-04-01T07:39:19.325Z,36.07
2019-04-01T07:41:48.284Z,37.77
2019-04-01T07:44:17.353Z,37.10
2019-04-01T07:46:46.322Z,36.67
2019-04-01T07:49:15.286Z,35.63
2019-04-01T07:51:44.282Z,36.73
2019-04-01T07:54:13.186Z,37.00
2019-04-01T07:56:42.106Z,34.67
2019-04-01T07:59:11.111Z,35.33
2019-04-01T08:01:40.004Z,36.53
2019-04-01T08:04:08.900Z,33.30
2019-04-01T08:06:38.192Z,35.10
2019-04-01T08:09:07.153Z,34.93
2019-04-01T08:11:36.125Z,35.83
2019-04-01T08:14:05.120Z,34.57
2019-04-01T08:16:34.071Z,35.77
2019-04-01T08:19:03.051Z,34.87
2019-04-01T08:21:32.250Z,33.73
2019-04-01T08:24:01.218Z,34.47
2019-04-01T08:26:30.130Z,32.70
2019-04-01T08:28:59.048Z,35.00
2019-04-01T08:31:27.939Z,32.90
2019-04-01T08:33:56.841Z,33.30
2019-04-01T08:36:25.821Z,35.03
2019-04-01T08:38:55.528Z,34.47
2019-04-01T08:41:24.623Z,33.27
2019-04-01T08:43:53.554Z,33.77
2019-04-01T08:46:22.453Z,34.53
2019-04-01T08:48:51.355Z,33.60
2019-04-01T08:51:20.334Z,32.63
2019-04-01T08:53:49.232Z,32.80
2019-04-01T08:56:18.307Z,33.53
2019-04-01T08:58:47.243Z,31.63
2019-04-01T09:01:16.294Z,31.87
2019-04-01T09:03:45.242Z,31.83
2019-04-01T09:06:14.264Z,30.73
2019-04-01T09:08:43.721Z,31.60
2019-04-01T09:11:13.195Z,30.97
2019-04-01T09:13:42.129Z,31.40
2019-04-01T09:16:11.090Z,32.27
2019-04-01T09:18:40.004Z,33.43
2019-04-01T09:21:09.133Z,32.37
2019-04-01T09:23:38.031Z,33.80
2019-04-01T09:26:08.064Z,34.60
2019-04-01T09:28:37.016Z,35.00
2019-04-01T09:31:05.972Z,33.63
2019-04-01T09:33:34.882Z,31.97
2019-04-01T09:36:03.961Z,33.67
2019-04-01T09:38:33.921Z,33.97
2019-04-01T09:41:03.403Z,34.00
2019-04-01T09:43:33.380Z,34.93
2019-04-01T09:46:02.351Z,34.27
2019-04-01T09:48:31.325Z,33.33
2019-04-01T09:51:00.526Z,32.20
2019-04-01T09:53:30.492Z,31.67
2019-04-01T09:55:59.386Z,34.70
2019-04-01T09:58:28.312Z,34.23
2019-04-01T10:00:57.218Z,34.00
2019-04-01T10:03:26.188Z,32.90
2019-04-01T10:05:55.103Z,33.07
2019-04-01T10:08:25.068Z,32.67
2019-04-01T10:10:54.006Z,32.77
2019-04-01T10:13:22.904Z,32.63
2019-04-01T10:15:51.888Z,33.23
2019-04-01T10:18:20.876Z,33.47
2019-04-01T10:20:49.785Z,32.73
2019-04-01T10:23:18.837Z,32.37
2019-04-01T10:25:51.105Z,30.77
2019-04-01T10:28:18.553Z,32.20
2019-04-01T10:30:48.599Z,31.73
2019-04-01T10:33:17.579Z,32.77
2019-04-01T10:35:46.621Z,34.20
2019-04-01T10:38:15.614Z,31.30
2019-04-01T10:40:44.512Z,31.20
2019-04-01T10:43:13.476Z,32.27
2019-04-01T10:45:42.552Z,31.23
2019-04-01T10:48:11.480Z,31.53
2019-04-01T10:50:40.459Z,32.77
2019-04-01T10:53:09.400Z,30.93
2019-04-01T10:55:38.397Z,31.93
2019-04-01T10:58:07.353Z,31.53
2019-04-01T11:00:36.315Z,30.47
2019-04-01T11:03:06.194Z,30.10
2019-04-01T11:05:35.549Z,30.37
2019-04-01T11:08:04.495Z,31.57
2019-04-01T11:10:33.393Z,29.27
2019-04-01T11:13:02.311Z,30.93
2019-04-01T11:15:31.222Z,30.70
2019-04-01T11:18:00.120Z,32.70
2019-04-01T11:20:29.050Z,31.83
2019-04-01T11:22:57.943Z,30.83
2019-04-01T11:25:26.864Z,32.60
2019-04-01T11:27:55.984Z,32.23
2019-04-01T11:30:24.955Z,33.03
2019-04-01T11:32:54.958Z,30.73
2019-04-01T11:35:24.024Z,32.73
2019-04-01T11:37:53.000Z,31.33
2019-04-01T11:40:22.039Z,29.77
2019-04-01T11:42:51.036Z,30.17
2019-04-01T11:45:20.238Z,28.60
2019-04-01T11:47:49.204Z,31.73
2019-04-01T11:50:18.281Z,30.60
2019-04-01T11:52:47.223Z,29.57
2019-04-01T11:55:16.156Z,29.47
2019-04-01T11:57:45.093Z,28.00
2019-04-01T12:00:15.896Z,30.23
2019-04-01T12:02:46.151Z,27.30
2019-04-01T12:05:15.272Z,28.37
2019-04-01T12:07:44.234Z,27.03
2019-04-01T12:10:13.210Z,26.20
2019-04-01T12:12:42.204Z,26.90
2019-04-01T12:15:12.441Z,28.50
2019-04-01T12:17:42.211Z,25.90
2019-04-01T12:20:11.424Z,25.80
2019-04-01T12:22:40.833Z,25.33
2019-04-01T12:25:11.143Z,26.13
2019-04-01T12:27:40.110Z,27.17
2019-04-01T12:30:09.185Z,28.27
2019-04-01T12:32:38.278Z,26.23
2019-04-01T12:35:07.315Z,25.73
2019-04-01T12:37:36.357Z,25.63
2019-04-01T12:40:06.046Z,24.13
2019-04-01T12:42:34.955Z,24.40
2019-04-01T12:45:06.513Z,25.83
2019-04-01T12:47:35.475Z,25.90
2019-04-01T12:50:04.855Z,28.67
2019-04-01T12:52:33.852Z,24.57
2019-04-01T12:55:02.920Z,27.03
2019-04-01T12:57:31.873Z,26.23
2019-04-01T13:00:00.880Z,24.60
2019-04-01T13:02:29.853Z,26.07
2019-04-01T13:04:58.742Z,25.90
2019-04-01T13:07:27.651Z,26.73
2019-04-01T13:09:56.548Z,25.77
2019-04-01T13:12:27.327Z,24.53
2019-04-01T13:14:56.595Z,23.97
2019-04-01T13:17:25.556Z,25.13
2019-04-01T13:19:54.521Z,24.50
2019-04-01T13:22:23.432Z,24.10
2019-04-01T13:24:52.424Z,24.30
2019-04-01T13:27:21.390Z,21.63
2019-04-01T13:29:50.297Z,23.87
2019-04-01T13:32:20.342Z,24.03
2019-04-01T13:34:49.599Z,25.23
2019-04-01T13:37:18.686Z,26.50
2019-04-01T13:39:47.590Z,26.70
2019-04-01T13:42:17.506Z,25.47
2019-04-01T13:44:46.461Z,25.77
2019-04-01T13:47:15.361Z,23.97
2019-04-01T13:49:44.254Z,22.80
2019-04-01T13:52:13.169Z,23.77
2019-04-01T13:54:42.135Z,24.43
2019-04-01T13:57:11.183Z,26.60
2019-04-01T13:59:49.184Z,23.27
2019-04-01T14:02:11.018Z,26.73
2019-04-01T14:04:39.981Z,27.07
2019-04-01T14:07:08.932Z,23.43
2019-04-01T14:09:37.884Z,21.90
2019-04-01T14:12:06.862Z,24.47
2019-04-01T14:14:36.881Z,24.87
2019-04-01T14:17:06.060Z,22.00
2019-04-01T14:19:35.066Z,20.87
2019-04-01T14:22:04.070Z,24.67
2019-04-01T14:24:33.052Z,21.33
2019-04-01T14:27:01.953Z,21.93
2019-04-01T14:29:30.883Z,20.97
2019-04-01T14:31:59.782Z,24.73
2019-04-01T14:34:28.683Z,18.47
2019-04-01T14:36:57.611Z,19.93
2019-04-01T14:39:26.521Z,20.30
2019-04-01T14:41:55.428Z,22.50
2019-04-01T14:44:24.355Z,20.10
2019-04-01T14:46:53.641Z,21.63
2019-04-01T14:49:22.544Z,22.37
2019-04-01T14:51:51.478Z,23.33
2019-04-01T14:54:20.826Z,21.77
2019-04-01T14:56:49.845Z,21.20
2019-04-01T14:59:18.773Z,21.63
2019-04-01T15:01:47.759Z,21.10
2019-04-01T15:04:17.593Z,23.37
2019-04-01T15:06:47.589Z,22.53
2019-04-01T15:09:17.372Z,23.00
2019-04-01T15:11:46.434Z,22.87
2019-04-01T15:14:15.448Z,21.70
2019-04-01T15:16:44.347Z,23.43
2019-04-01T15:19:14.326Z,23.43
2019-04-01T15:21:43.329Z,21.20
2019-04-01T15:24:12.292Z,22.03
2019-04-01T15:26:41.202Z,21.93
2019-04-01T15:29:10.131Z,21.07
2019-04-01T15:31:39.026Z,20.53
2019-04-01T15:34:09.301Z,21.83
2019-04-01T15:36:38.524Z,23.73
2019-04-01T15:39:09.100Z,20.13
2019-04-01T15:41:38.070Z,21.03
2019-04-01T15:44:06.973Z,19.47
2019-04-01T15:46:35.886Z,19.20
2019-04-01T15:49:04.870Z,18.37
2019-04-01T15:51:33.772Z,20.60
2019-04-01T15:54:04.315Z,19.57
2019-04-01T15:56:33.374Z,21.00
2019-04-01T15:59:02.269Z,21.63
2019-04-01T16:01:31.178Z,22.87
2019-04-01T16:04:00.226Z,20.17
2019-04-01T16:06:29.212Z,21.70
2019-04-01T16:08:58.123Z,22.00
2019-04-01T16:11:27.025Z,20.30
2019-04-01T16:13:55.943Z,21.23
2019-04-01T16:16:24.833Z,20.53
2019-04-01T16:18:53.755Z,19.33
2019-04-01T16:21:24.050Z,20.30
2019-04-01T16:23:53.047Z,21.57
2019-04-01T16:26:22.985Z,20.87
2019-04-01T16:28:51.939Z,21.40
2019-04-01T16:31:20.831Z,21.73
2019-04-01T16:33:49.746Z,20.07
2019-04-01T16:36:18.655Z,20.27
2019-04-01T16:38:47.673Z,20.67
2019-04-01T16:41:16.681Z,21.10
2019-04-01T16:43:46.424Z,20.67
2019-04-01T16:46:15.688Z,21.23
2019-04-01T16:48:46.497Z,21.90
2019-04-01T16:51:15.279Z,21.10
2019-04-01T16:53:44.574Z,20.77
2019-04-01T16:56:13.713Z,20.57
2019-04-01T16:58:42.674Z,21.03
2019-04-01T17:01:11.645Z,20.47
2019-04-01T17:03:40.627Z,19.80
2019-04-01T17:06:09.615Z,21.47
2019-04-01T17:08:39.256Z,21.90
2019-04-01T17:11:08.514Z,21.87
2019-04-01T17:13:37.453Z,21.27
2019-04-01T17:16:06.347Z,22.17
2019-04-01T17:18:35.614Z,21.37
2019-04-01T17:21:05.044Z,23.47
2019-04-01T17:23:34.296Z,22.60
2019-04-01T17:26:03.381Z,20.53
2019-04-01T17:28:53.137Z,18.67
2019-04-01T17:31:22.047Z,18.50
2019-04-01T17:33:51.078Z,19.50
2019-04-01T17:36:20.854Z,18.60
2019-04-01T17:38:49.748Z,17.70
2019-04-01T17:41:18.640Z,18.23
2019-04-01T17:43:49.146Z,19.03
2019-04-01T17:46:18.130Z,19.77
2019-04-01T17:48:48.076Z,19.20
2019-04-01T17:51:16.991Z,19.97
2019-04-01T17:54:00.821Z,19.77
2019-04-01T17:56:28.891Z,23.17
2019-04-01T17:59:01.245Z,18.27
2019-04-01T18:01:28.399Z,19.20
2019-04-01T18:03:57.331Z,19.27
2019-04-01T18:06:26.219Z,20.00
2019-04-01T18:08:55.122Z,20.17
2019-04-01T18:11:24.155Z,20.30
2019-04-01T18:13:53.045Z,20.10
2019-04-01T18:16:21.943Z,21.63
2019-04-01T18:18:50.879Z,20.47
2019-04-01T18:21:19.779Z,19.13
2019-04-01T18:23:48.681Z,20.00
2019-04-01T18:26:18.013Z,21.23
2019-04-01T18:28:48.725Z,21.03
2019-04-01T18:31:17.621Z,23.07
2019-04-01T18:33:56.034Z,20.60
2019-04-01T18:36:17.222Z,21.47
2019-04-01T18:38:46.472Z,20.73
2019-04-01T18:41:15.546Z,21.03
2019-04-01T18:43:45.688Z,20.90
2019-04-01T18:46:14.584Z,21.33
2019-04-01T18:48:43.558Z,21.47
2019-04-01T18:51:12.496Z,22.27
2019-04-01T18:53:41.468Z,21.23
2019-04-01T18:56:10.379Z,22.80
2019-04-01T18:58:39.328Z,24.30
2019-04-01T19:01:08.234Z,22.73
2019-04-01T19:03:38.205Z,23.10
2019-04-01T19:06:07.878Z,24.17
2019-04-01T19:08:36.865Z,24.87
2019-04-01T19:11:05.830Z,23.27
2019-04-01T19:13:34.831Z,24.50
2019-04-01T19:16:05.079Z,24.17
2019-04-01T19:18:34.383Z,23.87
2019-04-01T19:21:05.011Z,23.57
2019-04-01T19:23:34.110Z,24.67
2019-04-01T19:26:03.008Z,25.07
2019-04-01T19:28:32.011Z,25.80
2019-04-01T19:31:00.978Z,25.70
2019-04-01T19:33:29.954Z,24.90
2019-04-01T19:35:58.868Z,25.27
2019-04-01T19:38:27.804Z,25.03
2019-04-01T19:40:59.620Z,24.33
2019-04-01T19:43:27.314Z,27.03
2019-04-01T19:45:56.265Z,24.50
2019-04-01T19:48:25.153Z,27.53
2019-04-01T19:50:54.131Z,24.53
2019-04-01T19:53:24.172Z,26.70
2019-04-01T19:55:54.644Z,26.43
2019-04-01T19:58:25.376Z,24.70
2019-04-01T20:00:54.174Z,25.57
2019-04-01T20:03:23.086Z,25.20
2019-04-01T20:05:52.086Z,23.67
2019-04-01T20:08:21.097Z,23.77
2019-04-01T20:10:50.771Z,23.00
2019-04-01T20:13:20.469Z,21.40
2019-04-01T20:15:49.581Z,24.27
2019-04-01T20:18:18.807Z,23.57
2019-04-01T20:20:47.762Z,25.00
2019-04-01T20:23:16.706Z,24.63
2019-04-01T20:25:48.642Z,24.00
2019-04-01T20:28:16.272Z,23.13
2019-04-01T20:30:45.285Z,24.73
2019-04-01T20:33:18.176Z,21.67
2019-04-01T20:35:45.029Z,23.63
2019-04-01T20:38:15.059Z,25.43
2019-04-01T20:40:43.957Z,22.60
2019-04-01T20:43:12.888Z,22.87
2019-04-01T20:45:41.853Z,21.57
2019-04-01T20:48:11.884Z,23.17
2019-04-01T20:54:13.626Z,22.67
2019-04-01T21:00:24.595Z,23.70
2019-04-01T21:02:53.562Z,22.10
2019-04-01T21:05:23.166Z,23.47
2019-04-01T21:07:53.304Z,25.00
2019-04-01T21:10:22.273Z,24.90
2019-04-01T21:12:51.170Z,23.77
2019-04-01T21:15:20.246Z,22.43
2019-04-01T21:17:49.137Z,25.33
2019-04-01T21:20:18.111Z,24.13
2019-04-01T21:22:47.045Z,27.50
2019-04-01T21:25:15.958Z,26.17
2019-04-01T21:27:44.918Z,24.40
2019-04-01T21:30:14.302Z,25.60
2019-04-01T21:32:43.201Z,24.57
2019-04-01T21:35:12.200Z,25.73
2019-04-01T21:37:41.099Z,24.17
2019-04-01T21:40:10.073Z,26.37
2019-04-01T21:42:39.013Z,25.67
2019-04-01T21:45:08.084Z,26.00
2019-04-01T21:47:36.986Z,26.07
2019-04-01T21:50:07.297Z,27.10
2019-04-01T21:52:36.211Z,26.73
2019-04-01T21:55:07.859Z,26.33
2019-04-01T21:57:36.176Z,27.83
2019-04-01T22:00:06.604Z,26.73
2019-04-01T22:02:37.228Z,26.57
2019-04-01T22:05:18.610Z,27.67
2019-04-01T22:07:48.524Z,28.03
2019-04-01T22:10:17.509Z,28.17
2019-04-01T22:12:46.412Z,28.97
2019-04-01T22:15:15.427Z,28.13
2019-04-01T22:17:45.218Z,28.73
2019-04-01T22:20:15.081Z,27.37
2019-04-01T22:22:44.031Z,27.73
2019-04-01T22:25:12.932Z,27.80
2019-04-01T22:27:41.833Z,27.90
2019-04-01T22:30:10.942Z,28.23
2019-04-01T22:32:39.829Z,29.03
2019-04-01T22:35:08.828Z,28.97
2019-04-01T22:37:38.031Z,28.73
2019-04-01T22:40:07.663Z,29.07
2019-04-01T22:42:36.579Z,30.50
2019-04-01T22:45:06.943Z,28.77
2019-04-01T22:47:35.846Z,27.07
2019-04-01T22:50:05.909Z,29.20
2019-04-01T22:52:35.401Z,30.20
2019-04-01T22:55:05.497Z,29.77
2019-04-01T22:57:35.376Z,28.40
2019-04-01T23:00:05.663Z,29.77
2019-04-01T23:02:36.248Z,29.57
2019-04-01T23:05:06.015Z,30.17
2019-04-01T23:07:34.938Z,29.17
2019-04-01T23:10:05.473Z,30.00
2019-04-01T23:12:34.369Z,29.83
2019-04-01T23:15:04.368Z,26.23
2019-04-01T23:17:33.304Z,28.60
2019-04-01T23:20:03.318Z,28.93
2019-04-01T23:22:33.659Z,29.57
2019-04-01T23:25:02.638Z,28.87
2019-04-01T23:27:31.532Z,29.00
2019-04-01T23:30:00.464Z,29.37
2019-04-01T23:32:29.365Z,29.03
2019-04-01T23:34:58.271Z,28.93
2019-04-01T23:37:27.180Z,31.40
2019-04-01T23:39:56.076Z,30.77
2019-04-01T23:42:25.019Z,31.17
2019-04-01T23:44:53.926Z,31.10
2019-04-01T23:47:22.836Z,30.93
2019-04-01T23:49:51.776Z,31.17
2019-04-01T23:52:20.670Z,30.57
2019-04-01T23:54:49.648Z,30.53
2019-04-01T23:57:18.564Z,29.13
2019-04-01T23:59:48.642Z,29.07
